Aviation Digital Data Service (ADDS)

Output produced by METARs form (0838 UTC 24 September 2017)
found at http://aviationweather.gov/adds/metars/
 
KPBG 240521Z 2406/2506 00000KT P6SM SKC 
     FM241400 13007KT P6SM SKC 
     FM242300 VRB03KT P6SM SKC